To NAV CANADA Home Page Login to a new session Search on AWWS site Feedback and Comments Disclaimer Vers la page française équivalente Tips FAQ What's new on the site To the Forecasts and Observations / NOTAM section To "File a Flight Plan" website Publications and other links Update of the User's profile FIC Telephone Numbers My Weather Data Folder Route Weather Data Regional Weather Data Local Weather Data To the Forecasts and Observations / NOTAM section
Request Generated 04/25/2015 at 18:12:47 UTC . Weather information available at that time is displayed.

METAR/TAF

NORTH BATTLEFORD/SK    (show WxCam)

METAR CYQW 251800Z AUTO 05012G17KT 9SM OVC028 01/M03 A2994 RMK
SLP165=
SPECI CYQW 251736Z AUTO 05010G15KT 9SM SCT018 OVC030 01/M03 A2994 RMK
SLP163=
METAR CYQW 251700Z AUTO 08011G16KT 9SM BKN018 OVC037 00/M03 A2994 RMK
SLP167=
SPECI CYQW 251646Z AUTO 07011G17KT 9SM BKN016 OVC037 00/M03 A2994 RMK
SLP166=
SPECI CYQW 251625Z AUTO 07011G18KT 9SM SCT016 OVC037 00/M03 A2994 RMK
SLP165=
METAR CYQW 251600Z AUTO 06009G15KT 9SM BKN014 OVC035 M00/M04 A2994
RMK SLP164=

TAF CYQW 251748Z 2518/2606 08012G22KT P6SM -SN SCT012 OVC030 TEMPO
2518/2523 2SM -SN BR OVC012
BECMG 2518/2520 07015G25KT
FM260000 07015G25KT 6SM -SN SCT012 OVC020 TEMPO 2600/2606 1SM -SN
BR OVC008
BECMG 2603/2605 03012KT
RMK FCST BASED ON AUTO OBS. NXT FCST BY 260000Z=
Your time UTC time
Weather data provided by Environment Canada and NAV CANADA